sensor_id;sensor_type;location;lat;lon;timestamp;P1;durP1;ratioP1;P2;durP2;ratioP2
40595;SDS011;26304;48.794;9.820;2022-07-17T00:02:18;3.45;;;2.88;;
40595;SDS011;26304;48.794;9.820;2022-07-17T00:08:02;3.45;;;3.20;;
40595;SDS011;26304;48.794;9.820;2022-07-17T00:13:45;3.60;;;2.90;;
40595;SDS011;26304;48.794;9.820;2022-07-17T00:19:27;6.28;;;2.80;;
40595;SDS011;26304;48.794;9.820;2022-07-17T00:25:11;2.83;;;2.63;;
40595;SDS011;26304;48.794;9.820;2022-07-17T00:30:54;2.92;;;2.72;;
40595;SDS011;26304;48.794;9.820;2022-07-17T00:36:37;3.90;;;2.75;;
40595;SDS011;26304;48.794;9.820;2022-07-17T00:42:21;3.15;;;2.95;;
40595;SDS011;26304;48.794;9.820;2022-07-17T00:48:05;3.20;;;2.90;;
40595;SDS011;26304;48.794;9.820;2022-07-17T00:53:51;3.10;;;2.90;;
40595;SDS011;26304;48.794;9.820;2022-07-17T00:59:36;4.55;;;2.90;;
40595;SDS011;26304;48.794;9.820;2022-07-17T01:05:21;3.15;;;2.95;;
40595;SDS011;26304;48.794;9.820;2022-07-17T01:11:04;3.25;;;2.95;;
40595;SDS011;26304;48.794;9.820;2022-07-17T01:16:49;4.30;;;2.90;;
40595;SDS011;26304;48.794;9.820;2022-07-17T01:22:39;3.80;;;3.00;;
40595;SDS011;26304;48.794;9.820;2022-07-17T01:28:22;3.60;;;3.30;;
40595;SDS011;26304;48.794;9.820;2022-07-17T01:34:05;3.50;;;3.20;;
40595;SDS011;26304;48.794;9.820;2022-07-17T01:39:50;3.40;;;3.10;;
40595;SDS011;26304;48.794;9.820;2022-07-17T01:45:36;3.05;;;2.85;;
40595;SDS011;26304;48.794;9.820;2022-07-17T01:51:19;3.22;;;2.92;;
40595;SDS011;26304;48.794;9.820;2022-07-17T01:57:03;4.75;;;3.13;;
40595;SDS011;26304;48.794;9.820;2022-07-17T02:02:46;3.53;;;3.22;;
40595;SDS011;26304;48.794;9.820;2022-07-17T02:08:28;4.00;;;2.85;;
40595;SDS011;26304;48.794;9.820;2022-07-17T02:14:12;5.32;;;3.40;;
40595;SDS011;26304;48.794;9.820;2022-07-17T02:19:55;3.75;;;3.40;;
40595;SDS011;26304;48.794;9.820;2022-07-17T02:25:38;3.20;;;2.95;;
40595;SDS011;26304;48.794;9.820;2022-07-17T02:31:21;3.40;;;3.10;;
40595;SDS011;26304;48.794;9.820;2022-07-17T02:37:04;3.40;;;3.20;;
40595;SDS011;26304;48.794;9.820;2022-07-17T02:42:47;3.72;;;2.83;;
40595;SDS011;26304;48.794;9.820;2022-07-17T02:48:31;3.38;;;3.08;;
40595;SDS011;26304;48.794;9.820;2022-07-17T02:54:14;3.50;;;3.20;;
40595;SDS011;26304;48.794;9.820;2022-07-17T02:59:56;3.38;;;3.08;;
40595;SDS011;26304;48.794;9.820;2022-07-17T03:05:40;3.42;;;3.15;;
40595;SDS011;26304;48.794;9.820;2022-07-17T03:11:22;3.25;;;2.95;;
40595;SDS011;26304;48.794;9.820;2022-07-17T03:17:05;3.80;;;3.30;;
40595;SDS011;26304;48.794;9.820;2022-07-17T03:22:49;3.55;;;3.00;;
40595;SDS011;26304;48.794;9.820;2022-07-17T03:28:32;3.30;;;3.10;;
40595;SDS011;26304;48.794;9.820;2022-07-17T03:34:15;6.05;;;3.55;;
40595;SDS011;26304;48.794;9.820;2022-07-17T03:39:58;3.30;;;3.00;;
40595;SDS011;26304;48.794;9.820;2022-07-17T03:45:41;3.63;;;3.33;;
40595;SDS011;26304;48.794;9.820;2022-07-17T03:51:23;4.72;;;3.65;;
40595;SDS011;26304;48.794;9.820;2022-07-17T03:57:07;3.42;;;3.10;;
40595;SDS011;26304;48.794;9.820;2022-07-17T04:02:50;3.45;;;2.95;;
40595;SDS011;26304;48.794;9.820;2022-07-17T04:08:33;3.72;;;2.90;;
40595;SDS011;26304;48.794;9.820;2022-07-17T04:14:17;3.50;;;3.10;;
40595;SDS011;26304;48.794;9.820;2022-07-17T04:20:00;4.90;;;3.83;;
40595;SDS011;26304;48.794;9.820;2022-07-17T04:25:43;3.10;;;2.90;;
40595;SDS011;26304;48.794;9.820;2022-07-17T04:31:27;3.03;;;2.83;;
40595;SDS011;26304;48.794;9.820;2022-07-17T04:37:10;3.72;;;2.90;;
40595;SDS011;26304;48.794;9.820;2022-07-17T04:42:52;2.90;;;2.70;;
40595;SDS011;26304;48.794;9.820;2022-07-17T04:48:36;3.30;;;2.97;;
40595;SDS011;26304;48.794;9.820;2022-07-17T04:54:19;3.17;;;2.88;;
40595;SDS011;26304;48.794;9.820;2022-07-17T05:00:02;4.13;;;3.10;;
40595;SDS011;26304;48.794;9.820;2022-07-17T05:05:47;3.10;;;2.80;;
40595;SDS011;26304;48.794;9.820;2022-07-17T05:11:29;3.78;;;3.03;;
40595;SDS011;26304;48.794;9.820;2022-07-17T05:17:12;3.17;;;2.88;;
40595;SDS011;26304;48.794;9.820;2022-07-17T05:22:56;3.13;;;2.80;;
40595;SDS011;26304;48.794;9.820;2022-07-17T05:28:39;3.15;;;2.83;;
40595;SDS011;26304;48.794;9.820;2022-07-17T05:34:21;2.90;;;2.70;;
40595;SDS011;26304;48.794;9.820;2022-07-17T05:40:06;2.50;;;2.30;;
40595;SDS011;26304;48.794;9.820;2022-07-17T05:45:52;2.85;;;2.65;;
40595;SDS011;26304;48.794;9.820;2022-07-17T05:51:35;3.72;;;2.75;;
40595;SDS011;26304;48.794;9.820;2022-07-17T05:57:19;3.08;;;2.88;;
40595;SDS011;26304;48.794;9.820;2022-07-17T06:03:01;2.78;;;2.50;;
40595;SDS011;26304;48.794;9.820;2022-07-17T06:08:44;3.10;;;2.80;;
40595;SDS011;26304;48.794;9.820;2022-07-17T06:14:28;2.70;;;2.50;;
40595;SDS011;26304;48.794;9.820;2022-07-17T06:20:10;2.28;;;2.15;;
40595;SDS011;26304;48.794;9.820;2022-07-17T06:25:54;3.38;;;1.98;;
40595;SDS011;26304;48.794;9.820;2022-07-17T06:31:38;2.58;;;2.25;;
40595;SDS011;26304;48.794;9.820;2022-07-17T06:37:22;2.15;;;1.95;;
40595;SDS011;26304;48.794;9.820;2022-07-17T06:43:04;2.35;;;2.15;;
40595;SDS011;26304;48.794;9.820;2022-07-17T06:48:49;3.28;;;1.90;;
40595;SDS011;26304;48.794;9.820;2022-07-17T06:54:32;3.08;;;2.10;;
40595;SDS011;26304;48.794;9.820;2022-07-17T07:00:15;1.90;;;1.70;;
40595;SDS011;26304;48.794;9.820;2022-07-17T07:06:00;1.90;;;1.80;;
40595;SDS011;26304;48.794;9.820;2022-07-17T07:11:43;2.10;;;2.00;;
40595;SDS011;26304;48.794;9.820;2022-07-17T07:17:25;2.15;;;1.90;;
40595;SDS011;26304;48.794;9.820;2022-07-17T07:23:09;2.03;;;1.92;;
40595;SDS011;26304;48.794;9.820;2022-07-17T07:28:52;3.08;;;2.20;;
40595;SDS011;26304;48.794;9.820;2022-07-17T07:34:34;1.90;;;1.80;;
40595;SDS011;26304;48.794;9.820;2022-07-17T07:40:18;2.05;;;1.95;;
40595;SDS011;26304;48.794;9.820;2022-07-17T07:46:01;2.30;;;2.10;;
40595;SDS011;26304;48.794;9.820;2022-07-17T07:51:45;1.92;;;1.83;;
40595;SDS011;26304;48.794;9.820;2022-07-17T07:57:29;2.55;;;2.10;;
40595;SDS011;26304;48.794;9.820;2022-07-17T08:03:11;2.28;;;1.80;;
40595;SDS011;26304;48.794;9.820;2022-07-17T08:08:54;1.98;;;1.88;;
40595;SDS011;26304;48.794;9.820;2022-07-17T08:14:38;1.92;;;1.83;;
40595;SDS011;26304;48.794;9.820;2022-07-17T08:20:21;1.75;;;1.65;;
40595;SDS011;26304;48.794;9.820;2022-07-17T08:26:04;2.00;;;1.90;;
40595;SDS011;26304;48.794;9.820;2022-07-17T08:31:48;1.92;;;1.83;;
40595;SDS011;26304;48.794;9.820;2022-07-17T08:37:30;1.85;;;1.75;;
40595;SDS011;26304;48.794;9.820;2022-07-17T08:43:24;1.92;;;1.83;;
40595;SDS011;26304;48.794;9.820;2022-07-17T08:49:09;2.40;;;2.20;;
40595;SDS011;26304;48.794;9.820;2022-07-17T08:54:53;2.05;;;1.75;;
40595;SDS011;26304;48.794;9.820;2022-07-17T09:00:36;2.97;;;2.10;;
40595;SDS011;26304;48.794;9.820;2022-07-17T09:06:20;2.63;;;1.83;;
40595;SDS011;26304;48.794;9.820;2022-07-17T09:12:03;1.95;;;1.85;;
40595;SDS011;26304;48.794;9.820;2022-07-17T09:17:47;2.35;;;2.05;;
40595;SDS011;26304;48.794;9.820;2022-07-17T09:23:31;2.17;;;1.92;;
40595;SDS011;26304;48.794;9.820;2022-07-17T09:29:15;2.63;;;2.22;;
40595;SDS011;26304;48.794;9.820;2022-07-17T09:34:59;2.03;;;1.92;;
40595;SDS011;26304;48.794;9.820;2022-07-17T09:40:44;2.42;;;2.20;;
40595;SDS011;26304;48.794;9.820;2022-07-17T09:46:43;2.97;;;2.10;;
40595;SDS011;26304;48.794;9.820;2022-07-17T09:52:27;3.05;;;2.17;;
40595;SDS011;26304;48.794;9.820;2022-07-17T09:58:13;2.60;;;2.08;;
40595;SDS011;26304;48.794;9.820;2022-07-17T10:03:57;2.20;;;2.00;;
40595;SDS011;26304;48.794;9.820;2022-07-17T10:09:40;2.03;;;1.92;;
40595;SDS011;26304;48.794;9.820;2022-07-17T10:15:24;2.85;;;2.00;;
40595;SDS011;26304;48.794;9.820;2022-07-17T10:21:11;3.78;;;2.25;;
40595;SDS011;26304;48.794;9.820;2022-07-17T10:26:55;2.03;;;1.92;;
40595;SDS011;26304;48.794;9.820;2022-07-17T10:32:39;2.80;;;2.20;;
40595;SDS011;26304;48.794;9.820;2022-07-17T10:38:40;2.20;;;2.00;;
40595;SDS011;26304;48.794;9.820;2022-07-17T10:44:24;2.10;;;1.98;;
40595;SDS011;26304;48.794;9.820;2022-07-17T10:50:27;2.00;;;1.90;;
40595;SDS011;26304;48.794;9.820;2022-07-17T10:56:11;2.47;;;2.00;;
40595;SDS011;26304;48.794;9.820;2022-07-17T11:01:55;1.95;;;1.85;;
40595;SDS011;26304;48.794;9.820;2022-07-17T11:07:49;2.53;;;1.85;;
40595;SDS011;26304;48.794;9.820;2022-07-17T11:13:35;2.13;;;2.03;;
40595;SDS011;26304;48.794;9.820;2022-07-17T11:19:21;1.67;;;1.58;;
40595;SDS011;26304;48.794;9.820;2022-07-17T11:25:06;2.22;;;1.80;;
40595;SDS011;26304;48.794;9.820;2022-07-17T11:30:50;2.40;;;1.77;;
40595;SDS011;26304;48.794;9.820;2022-07-17T11:36:33;2.22;;;1.90;;
40595;SDS011;26304;48.794;9.820;2022-07-17T11:42:20;1.88;;;1.77;;
40595;SDS011;26304;48.794;9.820;2022-07-17T11:48:04;1.70;;;1.60;;
40595;SDS011;26304;48.794;9.820;2022-07-17T11:53:47;1.88;;;1.77;;
40595;SDS011;26304;48.794;9.820;2022-07-17T11:59:34;1.77;;;1.67;;
40595;SDS011;26304;48.794;9.820;2022-07-17T12:05:24;2.45;;;1.80;;
40595;SDS011;26304;48.794;9.820;2022-07-17T12:11:08;1.65;;;1.55;;
40595;SDS011;26304;48.794;9.820;2022-07-17T12:16:52;1.60;;;1.50;;
40595;SDS011;26304;48.794;9.820;2022-07-17T12:22:44;1.50;;;1.40;;
40595;SDS011;26304;48.794;9.820;2022-07-17T12:28:28;2.20;;;1.52;;
40595;SDS011;26304;48.794;9.820;2022-07-17T12:34:12;1.70;;;1.60;;
40595;SDS011;26304;48.794;9.820;2022-07-17T12:39:55;1.70;;;1.60;;
40595;SDS011;26304;48.794;9.820;2022-07-17T12:45:38;1.85;;;1.73;;
40595;SDS011;26304;48.794;9.820;2022-07-17T12:51:22;1.70;;;1.60;;
40595;SDS011;26304;48.794;9.820;2022-07-17T12:57:05;1.90;;;1.80;;
40595;SDS011;26304;48.794;9.820;2022-07-17T13:02:48;1.60;;;1.50;;
40595;SDS011;26304;48.794;9.820;2022-07-17T13:08:32;2.08;;;1.88;;
40595;SDS011;26304;48.794;9.820;2022-07-17T13:14:14;2.03;;;1.60;;
40595;SDS011;26304;48.794;9.820;2022-07-17T13:19:57;1.75;;;1.65;;
40595;SDS011;26304;48.794;9.820;2022-07-17T13:25:41;1.63;;;1.52;;
40595;SDS011;26304;48.794;9.820;2022-07-17T13:31:25;1.98;;;1.40;;
40595;SDS011;26304;48.794;9.820;2022-07-17T13:37:07;1.70;;;1.60;;
40595;SDS011;26304;48.794;9.820;2022-07-17T13:42:51;1.83;;;1.70;;
40595;SDS011;26304;48.794;9.820;2022-07-17T13:48:34;1.52;;;1.42;;
40595;SDS011;26304;48.794;9.820;2022-07-17T13:54:16;1.67;;;1.58;;
40595;SDS011;26304;48.794;9.820;2022-07-17T14:00:00;2.30;;;1.70;;
40595;SDS011;26304;48.794;9.820;2022-07-17T14:05:43;1.70;;;1.60;;
40595;SDS011;26304;48.794;9.820;2022-07-17T14:11:26;2.95;;;1.80;;
40595;SDS011;26304;48.794;9.820;2022-07-17T14:17:10;2.42;;;1.60;;
40595;SDS011;26304;48.794;9.820;2022-07-17T14:22:53;1.60;;;1.50;;
40595;SDS011;26304;48.794;9.820;2022-07-17T14:28:35;1.67;;;1.58;;
40595;SDS011;26304;48.794;9.820;2022-07-17T14:34:19;1.75;;;1.65;;
40595;SDS011;26304;48.794;9.820;2022-07-17T14:40:04;1.85;;;1.75;;
40595;SDS011;26304;48.794;9.820;2022-07-17T14:45:48;2.33;;;2.00;;
40595;SDS011;26304;48.794;9.820;2022-07-17T14:51:32;3.80;;;1.70;;
40595;SDS011;26304;48.794;9.820;2022-07-17T14:57:14;2.10;;;1.70;;
40595;SDS011;26304;48.794;9.820;2022-07-17T15:02:57;1.85;;;1.75;;
40595;SDS011;26304;48.794;9.820;2022-07-17T15:08:41;2.45;;;1.58;;
40595;SDS011;26304;48.794;9.820;2022-07-17T15:14:23;1.83;;;1.60;;
40595;SDS011;26304;48.794;9.820;2022-07-17T15:20:06;3.08;;;2.00;;
40595;SDS011;26304;48.794;9.820;2022-07-17T15:25:51;3.10;;;1.90;;
40595;SDS011;26304;48.794;9.820;2022-07-17T15:31:33;2.13;;;1.90;;
40595;SDS011;26304;48.794;9.820;2022-07-17T15:37:16;1.92;;;1.70;;
40595;SDS011;26304;48.794;9.820;2022-07-17T15:43:00;2.03;;;1.83;;
40595;SDS011;26304;48.794;9.820;2022-07-17T15:48:43;2.50;;;1.90;;
40595;SDS011;26304;48.794;9.820;2022-07-17T15:54:26;1.90;;;1.80;;
40595;SDS011;26304;48.794;9.820;2022-07-17T16:00:10;2.72;;;1.90;;
40595;SDS011;26304;48.794;9.820;2022-07-17T16:05:53;2.50;;;1.90;;
40595;SDS011;26304;48.794;9.820;2022-07-17T16:11:35;2.20;;;1.80;;
40595;SDS011;26304;48.794;9.820;2022-07-17T16:17:19;3.03;;;1.90;;
40595;SDS011;26304;48.794;9.820;2022-07-17T16:23:03;2.13;;;1.73;;
40595;SDS011;26304;48.794;9.820;2022-07-17T16:28:46;4.65;;;2.00;;
40595;SDS011;26304;48.794;9.820;2022-07-17T16:34:30;2.38;;;1.98;;
40595;SDS011;26304;48.794;9.820;2022-07-17T16:40:13;2.83;;;2.05;;
40595;SDS011;26304;48.794;9.820;2022-07-17T16:45:56;6.47;;;1.77;;
40595;SDS011;26304;48.794;9.820;2022-07-17T16:51:41;2.85;;;1.98;;
40595;SDS011;26304;48.794;9.820;2022-07-17T16:57:23;2.92;;;2.22;;
40595;SDS011;26304;48.794;9.820;2022-07-17T17:03:06;4.18;;;2.00;;
40595;SDS011;26304;48.794;9.820;2022-07-17T17:08:50;3.17;;;1.92;;
40595;SDS011;26304;48.794;9.820;2022-07-17T17:14:33;3.03;;;2.00;;
40595;SDS011;26304;48.794;9.820;2022-07-17T17:20:15;1.90;;;1.80;;
40595;SDS011;26304;48.794;9.820;2022-07-17T17:26:00;2.83;;;2.30;;
40595;SDS011;26304;48.794;9.820;2022-07-17T17:31:44;3.35;;;3.05;;
40595;SDS011;26304;48.794;9.820;2022-07-17T17:37:26;4.25;;;2.72;;
40595;SDS011;26304;48.794;9.820;2022-07-17T17:43:11;2.63;;;2.42;;
40595;SDS011;26304;48.794;9.820;2022-07-17T17:48:54;3.83;;;2.60;;
40595;SDS011;26304;48.794;9.820;2022-07-17T17:54:36;4.03;;;3.35;;
40595;SDS011;26304;48.794;9.820;2022-07-17T18:00:20;4.03;;;3.38;;
40595;SDS011;26304;48.794;9.820;2022-07-17T18:06:03;4.47;;;3.53;;
40595;SDS011;26304;48.794;9.820;2022-07-17T18:11:45;6.53;;;3.05;;
40595;SDS011;26304;48.794;9.820;2022-07-17T18:17:29;3.53;;;2.90;;
40595;SDS011;26304;48.794;9.820;2022-07-17T18:23:12;4.35;;;3.00;;
40595;SDS011;26304;48.794;9.820;2022-07-17T18:28:54;6.65;;;3.25;;
40595;SDS011;26304;48.794;9.820;2022-07-17T18:34:38;4.68;;;3.05;;
40595;SDS011;26304;48.794;9.820;2022-07-17T18:40:21;3.50;;;3.20;;
40595;SDS011;26304;48.794;9.820;2022-07-17T18:46:03;4.05;;;2.90;;
40595;SDS011;26304;48.794;9.820;2022-07-17T18:51:47;3.75;;;3.05;;
40595;SDS011;26304;48.794;9.820;2022-07-17T18:57:30;3.92;;;2.95;;
40595;SDS011;26304;48.794;9.820;2022-07-17T19:03:13;3.60;;;2.92;;
40595;SDS011;26304;48.794;9.820;2022-07-17T19:09:00;2.85;;;2.33;;
40595;SDS011;26304;48.794;9.820;2022-07-17T19:14:45;1.83;;;1.48;;
40595;SDS011;26304;48.794;9.820;2022-07-17T19:20:29;2.50;;;1.83;;
40595;SDS011;26304;48.794;9.820;2022-07-17T19:26:15;2.40;;;1.60;;
40595;SDS011;26304;48.794;9.820;2022-07-17T19:31:58;1.77;;;1.42;;
40595;SDS011;26304;48.794;9.820;2022-07-17T19:37:41;1.75;;;1.50;;
40595;SDS011;26304;48.794;9.820;2022-07-17T19:43:25;1.90;;;1.70;;
40595;SDS011;26304;48.794;9.820;2022-07-17T19:49:08;2.03;;;1.83;;
40595;SDS011;26304;48.794;9.820;2022-07-17T19:54:51;2.00;;;1.90;;
40595;SDS011;26304;48.794;9.820;2022-07-17T20:00:35;2.13;;;1.50;;
40595;SDS011;26304;48.794;9.820;2022-07-17T20:06:18;1.40;;;1.30;;
40595;SDS011;26304;48.794;9.820;2022-07-17T20:12:00;1.38;;;1.23;;
40595;SDS011;26304;48.794;9.820;2022-07-17T20:17:44;1.88;;;1.27;;
40595;SDS011;26304;48.794;9.820;2022-07-17T20:23:27;2.92;;;1.50;;
40595;SDS011;26304;48.794;9.820;2022-07-17T20:29:10;1.92;;;1.50;;
40595;SDS011;26304;48.794;9.820;2022-07-17T20:34:54;2.83;;;1.73;;
40595;SDS011;26304;48.794;9.820;2022-07-17T20:40:36;3.72;;;2.42;;
40595;SDS011;26304;48.794;9.820;2022-07-17T20:46:19;7.38;;;5.47;;
40595;SDS011;26304;48.794;9.820;2022-07-17T20:52:05;4.47;;;2.50;;
40595;SDS011;26304;48.794;9.820;2022-07-17T20:57:47;1.90;;;1.75;;
40595;SDS011;26304;48.794;9.820;2022-07-17T21:03:30;2.22;;;1.58;;
40595;SDS011;26304;48.794;9.820;2022-07-17T21:09:14;1.52;;;1.42;;
40595;SDS011;26304;48.794;9.820;2022-07-17T21:14:57;1.73;;;1.63;;
40595;SDS011;26304;48.794;9.820;2022-07-17T21:20:40;2.83;;;1.80;;
40595;SDS011;26304;48.794;9.820;2022-07-17T21:26:24;1.50;;;1.35;;
40595;SDS011;26304;48.794;9.820;2022-07-17T21:32:07;1.48;;;1.30;;
40595;SDS011;26304;48.794;9.820;2022-07-17T21:37:50;3.97;;;1.60;;
40595;SDS011;26304;48.794;9.820;2022-07-17T21:43:34;1.65;;;1.35;;
40595;SDS011;26304;48.794;9.820;2022-07-17T21:49:16;3.17;;;1.55;;
40595;SDS011;26304;48.794;9.820;2022-07-17T21:54:59;2.03;;;1.85;;
40595;SDS011;26304;48.794;9.820;2022-07-17T22:00:43;3.92;;;1.90;;
40595;SDS011;26304;48.794;9.820;2022-07-17T22:06:27;3.28;;;1.60;;
40595;SDS011;26304;48.794;9.820;2022-07-17T22:12:10;1.73;;;1.38;;
40595;SDS011;26304;48.794;9.820;2022-07-17T22:17:55;1.55;;;1.20;;
40595;SDS011;26304;48.794;9.820;2022-07-17T22:23:38;1.73;;;1.23;;
40595;SDS011;26304;48.794;9.820;2022-07-17T22:29:22;2.17;;;1.20;;
40595;SDS011;26304;48.794;9.820;2022-07-17T22:35:07;2.20;;;1.23;;
40595;SDS011;26304;48.794;9.820;2022-07-17T22:40:50;1.48;;;1.20;;
40595;SDS011;26304;48.794;9.820;2022-07-17T22:46:32;1.63;;;1.20;;
40595;SDS011;26304;48.794;9.820;2022-07-17T22:52:17;3.10;;;1.40;;
40595;SDS011;26304;48.794;9.820;2022-07-17T22:57:59;3.42;;;1.27;;
40595;SDS011;26304;48.794;9.820;2022-07-17T23:03:42;1.58;;;1.02;;
40595;SDS011;26304;48.794;9.820;2022-07-17T23:09:27;1.90;;;1.05;;
40595;SDS011;26304;48.794;9.820;2022-07-17T23:15:10;1.10;;;1.00;;
40595;SDS011;26304;48.794;9.820;2022-07-17T23:20:53;2.28;;;1.50;;
40595;SDS011;26304;48.794;9.820;2022-07-17T23:26:36;1.50;;;1.10;;
40595;SDS011;26304;48.794;9.820;2022-07-17T23:32:19;1.73;;;1.35;;
40595;SDS011;26304;48.794;9.820;2022-07-17T23:38:05;2.55;;;1.40;;
40595;SDS011;26304;48.794;9.820;2022-07-17T23:43:48;1.50;;;1.40;;
40595;SDS011;26304;48.794;9.820;2022-07-17T23:49:31;1.40;;;1.20;;
40595;SDS011;26304;48.794;9.820;2022-07-17T23:55:13;1.83;;;1.25;;
